createdAt,value
2017-11-25T00:02:20.346Z,73.60
2017-11-25T00:04:47.814Z,73.60
2017-11-25T00:07:15.354Z,73.60
2017-11-25T00:09:44.148Z,73.60
2017-11-25T00:12:11.947Z,73.60
2017-11-25T00:14:40.555Z,73.70
2017-11-25T00:17:08.860Z,73.80
2017-11-25T00:19:36.350Z,73.80
2017-11-25T00:22:03.892Z,73.70
2017-11-25T00:24:31.913Z,73.80
2017-11-25T00:27:00.239Z,73.80
2017-11-25T00:29:27.692Z,73.80
2017-11-25T00:31:55.374Z,73.70
2017-11-25T00:34:23.460Z,73.90
2017-11-25T00:36:51.167Z,73.90
2017-11-25T00:39:19.410Z,74.10
2017-11-25T00:41:47.303Z,74.40
2017-11-25T00:44:15.854Z,74.60
2017-11-25T00:46:43.305Z,74.60
2017-11-25T00:49:11.155Z,74.60
2017-11-25T00:51:38.622Z,74.10
2017-11-25T00:54:06.398Z,73.70
2017-11-25T00:56:35.244Z,73.70
2017-11-25T00:59:03.033Z,73.60
2017-11-25T01:01:30.494Z,73.60
2017-11-25T01:03:58.378Z,73.80
2017-11-25T01:06:26.598Z,74.20
2017-11-25T01:08:54.058Z,74.10
2017-11-25T01:11:21.945Z,74.20
2017-11-25T01:13:49.398Z,74.30
2017-11-25T01:16:17.183Z,74.30
2017-11-25T01:18:44.738Z,74.10
2017-11-25T01:21:12.193Z,74.00
2017-11-25T01:23:39.633Z,73.90
2017-11-25T01:26:07.924Z,74.00
2017-11-25T01:28:35.443Z,74.10
2017-11-25T01:31:03.414Z,74.20
2017-11-25T01:33:30.873Z,74.20
2017-11-25T01:35:58.883Z,74.30
2017-11-25T01:38:26.322Z,74.20
2017-11-25T01:40:53.790Z,74.20
2017-11-25T01:43:21.647Z,74.10
2017-11-25T01:45:49.130Z,74.30
2017-11-25T01:48:18.009Z,74.30
2017-11-25T01:50:45.451Z,74.30
2017-11-25T01:53:12.979Z,73.80
2017-11-25T01:55:40.541Z,74.30
2017-11-25T01:58:08.014Z,74.40
2017-11-25T02:00:35.472Z,74.30
2017-11-25T02:03:02.933Z,74.00
2017-11-25T02:05:30.975Z,74.00
2017-11-25T02:07:58.433Z,74.00
2017-11-25T02:10:25.912Z,74.10
2017-11-25T02:12:53.451Z,74.30
2017-11-25T02:15:20.915Z,74.20
2017-11-25T02:17:48.460Z,74.10
2017-11-25T02:20:16.051Z,74.30
2017-11-25T02:22:43.941Z,74.20
2017-11-25T02:25:12.000Z,74.50
2017-11-25T02:27:39.472Z,74.30
2017-11-25T02:30:06.975Z,74.30
2017-11-25T02:32:34.430Z,75.00
2017-11-25T02:35:02.134Z,74.20
2017-11-25T02:37:30.094Z,74.20
2017-11-25T02:39:57.548Z,74.30
2017-11-25T02:42:25.026Z,74.40
2017-11-25T02:44:52.871Z,74.40
2017-11-25T02:47:20.325Z,74.90
2017-11-25T02:49:48.224Z,74.30
2017-11-25T02:52:16.210Z,74.50
2017-11-25T02:54:44.443Z,74.60
2017-11-25T02:57:11.887Z,74.60
2017-11-25T02:59:39.623Z,74.60
2017-11-25T03:02:07.081Z,74.60
2017-11-25T03:04:34.744Z,74.70
2017-11-25T03:07:02.842Z,74.80
2017-11-25T03:09:30.286Z,74.80
2017-11-25T03:11:58.480Z,74.60
2017-11-25T03:14:26.008Z,74.70
2017-11-25T03:16:53.454Z,74.90
2017-11-25T03:19:21.019Z,74.80
2017-11-25T03:21:48.598Z,74.70
2017-11-25T03:24:16.157Z,74.70
2017-11-25T03:26:43.722Z,74.70
2017-11-25T03:29:11.454Z,74.80
2017-11-25T03:31:39.761Z,74.70
2017-11-25T03:34:07.232Z,74.80
2017-11-25T03:36:34.718Z,74.70
2017-11-25T03:39:02.186Z,74.70
2017-11-25T03:41:29.733Z,74.80
2017-11-25T03:43:58.275Z,75.60
2017-11-25T03:46:27.029Z,74.90
2017-11-25T03:48:55.031Z,74.80
2017-11-25T03:51:22.907Z,74.80
2017-11-25T03:53:50.759Z,74.60
2017-11-25T03:56:18.226Z,74.40
2017-11-25T03:58:45.673Z,74.40
2017-11-25T04:01:13.232Z,74.60
2017-11-25T04:03:40.667Z,74.40
2017-11-25T04:06:08.154Z,74.50
2017-11-25T04:08:36.471Z,74.50
2017-11-25T04:11:04.188Z,74.50
2017-11-25T04:13:31.962Z,74.70
2017-11-25T04:15:59.813Z,74.80
2017-11-25T04:18:27.401Z,74.60
2017-11-25T04:20:56.068Z,74.10
2017-11-25T04:23:24.298Z,74.20
2017-11-25T04:25:51.743Z,74.20
2017-11-25T04:28:19.728Z,74.20
2017-11-25T04:30:47.232Z,74.40
2017-11-25T04:33:15.003Z,74.40
2017-11-25T04:35:43.326Z,75.10
2017-11-25T04:38:10.790Z,74.30
2017-11-25T04:40:38.886Z,74.40
2017-11-25T04:43:06.855Z,74.30
2017-11-25T04:45:34.332Z,74.50
2017-11-25T04:48:02.579Z,74.60
2017-11-25T04:50:30.448Z,74.60
2017-11-25T04:52:58.254Z,74.30
2017-11-25T04:55:25.739Z,74.10
2017-11-25T04:57:53.190Z,74.10
2017-11-25T05:00:23.625Z,74.00
2017-11-25T05:02:51.181Z,73.90
2017-11-25T05:05:18.842Z,73.80
2017-11-25T05:07:46.772Z,73.60
2017-11-25T05:10:14.993Z,73.70
2017-11-25T05:12:42.711Z,73.70
2017-11-25T05:15:10.952Z,73.00
2017-11-25T05:17:38.489Z,73.50
2017-11-25T05:20:05.976Z,73.00
2017-11-25T05:22:33.427Z,73.40
2017-11-25T05:25:01.395Z,73.00
2017-11-25T05:27:29.252Z,72.90
2017-11-25T05:29:57.190Z,72.80
2017-11-25T05:32:24.634Z,72.80
2017-11-25T05:34:52.250Z,72.80
2017-11-25T05:37:19.876Z,72.90
2017-11-25T05:39:47.339Z,73.00
2017-11-25T05:42:15.347Z,72.70
2017-11-25T05:44:43.097Z,72.60
2017-11-25T05:47:10.551Z,72.70
2017-11-25T05:49:38.377Z,72.60
2017-11-25T05:52:05.841Z,72.50
2017-11-25T05:54:33.273Z,72.70
2017-11-25T05:57:00.758Z,72.70
2017-11-25T05:59:28.859Z,72.40
2017-11-25T06:01:56.314Z,72.30
2017-11-25T06:04:23.878Z,72.40
2017-11-25T06:06:51.403Z,72.40
2017-11-25T06:09:19.370Z,72.20
2017-11-25T06:11:46.827Z,72.40
2017-11-25T06:14:14.384Z,72.50
2017-11-25T06:16:41.822Z,72.30
2017-11-25T06:19:09.432Z,71.90
2017-11-25T06:21:36.870Z,71.70
2017-11-25T06:24:04.751Z,71.40
2017-11-25T06:26:32.508Z,72.00
2017-11-25T06:29:00.019Z,70.90
2017-11-25T06:31:28.450Z,70.50
2017-11-25T06:33:55.905Z,70.50
2017-11-25T06:36:23.462Z,70.60
2017-11-25T06:38:50.898Z,70.70
2017-11-25T06:41:18.374Z,70.90
2017-11-25T06:43:47.017Z,71.00
2017-11-25T06:46:14.483Z,71.00
2017-11-25T06:48:43.106Z,71.00
2017-11-25T06:51:10.586Z,71.10
2017-11-25T06:53:38.799Z,70.90
2017-11-25T06:56:06.266Z,70.90
2017-11-25T06:58:33.702Z,70.60
2017-11-25T07:01:01.201Z,70.40
2017-11-25T07:03:28.621Z,70.20
2017-11-25T07:05:56.667Z,70.10
2017-11-25T07:08:24.504Z,70.30
2017-11-25T07:10:51.959Z,70.20
2017-11-25T07:13:19.449Z,69.90
2017-11-25T07:15:47.998Z,69.80
2017-11-25T07:18:15.462Z,69.70
2017-11-25T07:20:43.515Z,70.00
2017-11-25T07:23:10.955Z,69.80
2017-11-25T07:25:38.845Z,70.30
2017-11-25T07:28:06.472Z,70.90
2017-11-25T07:30:33.927Z,70.70
2017-11-25T07:33:01.397Z,70.90
2017-11-25T07:35:28.835Z,70.60
2017-11-25T07:37:56.332Z,69.20
2017-11-25T07:40:24.007Z,68.20
2017-11-25T07:42:52.007Z,67.90
2017-11-25T07:45:19.556Z,67.30
2017-11-25T07:47:48.000Z,66.20
2017-11-25T07:50:15.936Z,66.10
2017-11-25T07:52:43.372Z,65.10
2017-11-25T07:55:10.851Z,65.40
2017-11-25T07:57:38.301Z,65.20
2017-11-25T08:00:06.376Z,64.50
2017-11-25T08:02:33.815Z,64.40
2017-11-25T08:05:01.393Z,64.30
2017-11-25T08:07:29.303Z,64.30
2017-11-25T08:09:56.813Z,64.80
2017-11-25T08:12:24.242Z,65.00
2017-11-25T08:14:52.472Z,65.80
2017-11-25T08:17:20.004Z,65.80
2017-11-25T08:19:47.868Z,65.60
2017-11-25T08:22:15.403Z,66.50
2017-11-25T08:24:43.866Z,67.00
2017-11-25T08:27:12.068Z,67.80
2017-11-25T08:29:39.530Z,67.60
2017-11-25T08:32:06.983Z,68.30
2017-11-25T08:34:34.623Z,68.00
2017-11-25T08:37:02.831Z,68.10
2017-11-25T08:39:30.387Z,68.10
2017-11-25T08:41:57.984Z,68.60
2017-11-25T08:44:26.130Z,68.40
2017-11-25T08:46:54.511Z,68.60
2017-11-25T08:49:23.012Z,68.10
2017-11-25T08:51:50.556Z,67.10
2017-11-25T08:54:18.444Z,67.20
2017-11-25T08:56:45.882Z,67.50
2017-11-25T08:59:13.358Z,67.80
2017-11-25T09:01:40.822Z,67.20
2017-11-25T09:04:08.305Z,67.40
2017-11-25T09:06:36.514Z,67.90
2017-11-25T09:09:04.322Z,67.80
2017-11-25T09:11:31.827Z,68.20
2017-11-25T09:13:59.745Z,68.30
2017-11-25T09:16:27.660Z,68.20
2017-11-25T09:18:55.134Z,68.20
2017-11-25T09:21:22.674Z,68.70
2017-11-25T09:23:50.133Z,68.80
2017-11-25T09:26:17.611Z,68.90
2017-11-25T09:28:45.698Z,69.10
2017-11-25T09:31:13.161Z,69.10
2017-11-25T09:33:40.688Z,69.40
2017-11-25T09:36:08.164Z,69.30
2017-11-25T09:38:35.607Z,68.50
2017-11-25T09:41:03.118Z,68.80
2017-11-25T09:43:31.894Z,68.60
2017-11-25T09:46:00.111Z,68.70
2017-11-25T09:48:28.272Z,68.60
2017-11-25T09:50:55.772Z,68.50
2017-11-25T09:53:23.230Z,68.50
2017-11-25T09:55:50.698Z,68.90
2017-11-25T09:58:18.174Z,68.80
2017-11-25T10:00:46.588Z,68.10
2017-11-25T10:03:14.062Z,68.10
2017-11-25T10:05:41.845Z,68.20
2017-11-25T10:08:09.902Z,68.20
2017-11-25T10:10:37.391Z,68.70
2017-11-25T10:13:05.177Z,68.40
2017-11-25T10:15:32.657Z,68.00
2017-11-25T10:18:00.290Z,67.10
2017-11-25T10:20:27.893Z,67.10
2017-11-25T10:22:55.975Z,64.70
2017-11-25T10:25:23.443Z,65.50
2017-11-25T10:27:51.678Z,66.00
2017-11-25T10:30:20.082Z,66.00
2017-11-25T10:32:47.758Z,66.60
2017-11-25T10:35:15.213Z,66.10
2017-11-25T10:37:42.695Z,65.60
2017-11-25T10:40:11.050Z,65.60
2017-11-25T10:42:39.435Z,65.50
2017-11-25T10:45:06.875Z,65.50
2017-11-25T10:47:34.335Z,65.10
2017-11-25T10:50:02.278Z,65.50
2017-11-25T10:52:30.277Z,65.40
2017-11-25T10:54:57.735Z,65.60
2017-11-25T10:57:25.313Z,65.80
2017-11-25T10:59:53.527Z,65.20
2017-11-25T11:02:21.030Z,65.20
2017-11-25T11:04:48.441Z,64.20
2017-11-25T11:07:16.615Z,63.80
2017-11-25T11:09:44.075Z,64.00
2017-11-25T11:12:11.871Z,62.50
2017-11-25T11:14:40.212Z,62.00
2017-11-25T11:17:08.211Z,62.00
2017-11-25T11:19:35.868Z,62.50
2017-11-25T11:22:03.343Z,62.00
2017-11-25T11:24:31.310Z,60.40
2017-11-25T11:26:58.864Z,60.80
2017-11-25T11:29:27.214Z,60.10
2017-11-25T11:31:55.379Z,59.60
2017-11-25T11:34:22.846Z,58.80
2017-11-25T11:36:50.353Z,59.60
2017-11-25T11:39:17.823Z,60.10
2017-11-25T11:41:46.229Z,58.20
2017-11-25T11:44:14.089Z,58.20
2017-11-25T11:46:41.567Z,56.90
2017-11-25T11:49:09.478Z,57.70
2017-11-25T11:51:37.763Z,55.90
2017-11-25T11:54:06.019Z,55.70
2017-11-25T11:56:33.774Z,55.60
2017-11-25T11:59:01.282Z,55.20
2017-11-25T12:01:29.657Z,52.30
2017-11-25T12:03:57.946Z,50.60
2017-11-25T12:06:25.424Z,50.70
2017-11-25T12:08:58.117Z,51.40
2017-11-25T12:11:25.575Z,51.00
2017-11-25T12:13:53.054Z,51.30
2017-11-25T12:16:20.895Z,50.90
2017-11-25T12:18:48.439Z,49.90
2017-11-25T12:21:16.023Z,50.20
2017-11-25T12:23:43.469Z,49.40
2017-11-25T12:26:10.914Z,49.20
2017-11-25T12:28:38.950Z,48.20
2017-11-25T12:31:07.172Z,49.30
2017-11-25T12:33:35.386Z,49.30
2017-11-25T12:36:03.705Z,49.90
2017-11-25T12:38:31.201Z,49.20
2017-11-25T12:40:59.101Z,50.30
2017-11-25T12:43:27.926Z,50.90
2017-11-25T12:45:55.379Z,50.90
2017-11-25T12:48:23.445Z,50.70
2017-11-25T12:50:51.004Z,50.30
2017-11-25T12:53:18.875Z,50.60
2017-11-25T12:55:46.896Z,51.40
2017-11-25T12:58:14.439Z,51.90
2017-11-25T13:00:42.019Z,52.40
2017-11-25T13:03:09.964Z,54.70
2017-11-25T13:05:37.835Z,55.80
2017-11-25T13:08:05.380Z,55.10
2017-11-25T13:10:33.854Z,53.60
2017-11-25T13:13:01.512Z,53.30
2017-11-25T13:15:28.951Z,52.80
2017-11-25T13:17:56.417Z,52.40
2017-11-25T13:20:23.994Z,53.00
2017-11-25T13:22:51.442Z,53.60
2017-11-25T13:25:19.083Z,53.00
2017-11-25T13:27:46.531Z,52.30
2017-11-25T13:30:14.382Z,53.00
2017-11-25T13:32:42.690Z,52.80
2017-11-25T13:35:10.182Z,52.80
2017-11-25T13:37:37.628Z,53.30
2017-11-25T13:40:05.590Z,53.80
2017-11-25T13:42:33.781Z,54.40
2017-11-25T13:45:01.497Z,53.70
2017-11-25T13:47:28.943Z,55.00
2017-11-25T13:49:56.594Z,55.10
2017-11-25T13:52:24.051Z,55.40
2017-11-25T13:54:52.061Z,56.00
2017-11-25T13:57:20.134Z,56.50
2017-11-25T13:59:47.597Z,56.60
2017-11-25T14:02:15.430Z,56.90
2017-11-25T14:04:42.887Z,57.10
2017-11-25T14:07:10.353Z,56.80
2017-11-25T14:09:37.922Z,57.30
2017-11-25T14:12:05.572Z,57.50
2017-11-25T14:14:33.035Z,56.90
2017-11-25T14:17:00.493Z,57.50
2017-11-25T14:19:28.444Z,57.60
2017-11-25T14:21:55.970Z,57.70
2017-11-25T14:24:24.219Z,57.80
2017-11-25T14:26:51.651Z,57.80
2017-11-25T14:29:19.326Z,58.10
2017-11-25T14:31:46.766Z,57.80
2017-11-25T14:34:14.300Z,57.50
2017-11-25T14:36:41.896Z,57.70
2017-11-25T14:39:09.353Z,58.00
2017-11-25T14:41:36.943Z,58.60
2017-11-25T14:44:05.684Z,59.20
2017-11-25T14:46:33.231Z,59.20
2017-11-25T14:49:01.645Z,59.20
2017-11-25T14:51:29.988Z,59.20
2017-11-25T14:53:58.108Z,59.60
2017-11-25T14:56:26.053Z,60.50
2017-11-25T14:58:53.537Z,60.30
2017-11-25T15:01:22.304Z,60.90
2017-11-25T15:03:49.785Z,60.80
2017-11-25T15:06:17.221Z,61.10
2017-11-25T15:08:44.702Z,61.10
2017-11-25T15:11:12.914Z,61.40
2017-11-25T15:13:40.390Z,61.40
2017-11-25T15:16:07.909Z,61.70
2017-11-25T15:18:35.491Z,61.50
2017-11-25T15:21:03.153Z,61.60
2017-11-25T15:23:30.619Z,61.70
2017-11-25T15:25:58.083Z,62.10
2017-11-25T15:28:25.625Z,62.00
2017-11-25T15:30:53.316Z,62.10
2017-11-25T15:33:20.790Z,62.30
2017-11-25T15:35:48.270Z,62.60
2017-11-25T15:38:16.326Z,62.90
2017-11-25T15:40:44.184Z,63.10
2017-11-25T15:43:12.131Z,62.80
2017-11-25T15:45:39.660Z,63.20
2017-11-25T15:48:07.122Z,63.10
2017-11-25T15:50:34.708Z,63.20
2017-11-25T15:53:02.151Z,63.50
2017-11-25T15:55:29.739Z,63.40
2017-11-25T15:57:57.518Z,63.90
2017-11-25T16:00:25.762Z,64.30
2017-11-25T16:02:53.218Z,64.30
2017-11-25T16:05:20.663Z,64.30
2017-11-25T16:07:48.206Z,64.30
2017-11-25T16:10:15.668Z,64.30
2017-11-25T16:12:43.496Z,64.50
2017-11-25T16:15:11.875Z,64.60
2017-11-25T16:17:39.538Z,64.60
2017-11-25T16:20:07.105Z,64.80
2017-11-25T16:22:34.576Z,65.00
2017-11-25T16:25:02.406Z,65.30
2017-11-25T16:27:30.640Z,65.70
2017-11-25T16:29:58.090Z,65.70
2017-11-25T16:32:26.180Z,66.00
2017-11-25T16:34:54.589Z,66.00
2017-11-25T16:37:22.796Z,66.40
2017-11-25T16:39:51.279Z,66.40
2017-11-25T16:42:18.870Z,66.60
2017-11-25T16:44:47.349Z,66.70
2017-11-25T16:47:15.018Z,66.00
2017-11-25T16:49:42.535Z,66.30
2017-11-25T16:52:10.172Z,66.00
2017-11-25T16:54:38.397Z,66.60
2017-11-25T16:57:05.857Z,67.00
2017-11-25T16:59:33.395Z,67.50
2017-11-25T17:02:00.867Z,68.00
2017-11-25T17:04:28.339Z,69.40
2017-11-25T17:06:55.999Z,67.90
2017-11-25T17:09:23.430Z,67.70
2017-11-25T17:11:50.957Z,67.60
2017-11-25T17:14:18.480Z,67.40
2017-11-25T17:16:46.951Z,67.40
2017-11-25T17:19:14.398Z,67.40
2017-11-25T17:21:41.852Z,67.50
2017-11-25T17:24:09.320Z,67.00
2017-11-25T17:26:37.482Z,67.10
2017-11-25T17:29:04.976Z,66.90
2017-11-25T17:31:33.211Z,66.70
2017-11-25T17:34:00.745Z,66.70
2017-11-25T17:36:28.243Z,66.40
2017-11-25T17:38:55.682Z,66.90
2017-11-25T17:41:23.200Z,67.20
2017-11-25T17:43:51.245Z,66.90
2017-11-25T17:46:19.499Z,67.80
2017-11-25T17:48:46.938Z,67.70
2017-11-25T17:51:14.603Z,67.90
2017-11-25T17:53:42.510Z,68.00
2017-11-25T17:56:10.819Z,68.30
2017-11-25T17:58:38.286Z,68.30
2017-11-25T18:01:05.730Z,68.10
2017-11-25T18:03:33.297Z,68.10
2017-11-25T18:06:00.735Z,68.10
2017-11-25T18:08:28.325Z,68.10
2017-11-25T18:10:56.306Z,68.30
2017-11-25T18:13:24.091Z,68.30
2017-11-25T18:15:51.614Z,68.30
2017-11-25T18:18:19.167Z,68.40
2017-11-25T18:20:47.258Z,68.00
2017-11-25T18:23:14.751Z,67.50
2017-11-25T18:25:43.009Z,67.60
2017-11-25T18:28:10.551Z,67.50
2017-11-25T18:30:38.037Z,67.60
2017-11-25T18:33:05.511Z,67.70
2017-11-25T18:35:33.209Z,67.80
2017-11-25T18:38:00.651Z,67.50
2017-11-25T18:40:28.418Z,67.40
2017-11-25T18:42:56.230Z,67.40
2017-11-25T18:45:24.861Z,67.40
2017-11-25T18:47:52.317Z,67.50
2017-11-25T18:50:20.435Z,67.40
2017-11-25T18:52:47.909Z,67.40
2017-11-25T18:55:16.326Z,67.80
2017-11-25T18:57:43.774Z,67.80
2017-11-25T19:00:12.160Z,67.60
2017-11-25T19:02:39.683Z,67.50
2017-11-25T19:05:08.095Z,68.00
2017-11-25T19:07:35.823Z,68.00
2017-11-25T19:10:04.132Z,68.30
2017-11-25T19:12:31.588Z,68.30
2017-11-25T19:14:59.443Z,68.00
2017-11-25T19:17:27.079Z,68.10
2017-11-25T19:19:54.545Z,68.20
2017-11-25T19:22:22.809Z,68.40
2017-11-25T19:24:50.365Z,68.40
2017-11-25T19:27:18.618Z,68.50
2017-11-25T19:29:46.194Z,68.50
2017-11-25T19:32:13.749Z,68.10
2017-11-25T19:34:42.945Z,68.30
2017-11-25T19:37:10.506Z,68.30
2017-11-25T19:39:38.015Z,68.20
2017-11-25T19:42:05.678Z,69.00
2017-11-25T19:44:33.631Z,68.20
2017-11-25T19:47:03.694Z,68.30
2017-11-25T19:49:31.258Z,68.20
2017-11-25T19:52:02.189Z,68.40
2017-11-25T19:54:29.684Z,68.50
2017-11-25T19:56:57.952Z,69.10
2017-11-25T19:59:26.479Z,68.40
2017-11-25T20:01:54.121Z,68.30
2017-11-25T20:04:22.306Z,68.30
2017-11-25T20:06:49.799Z,68.30
2017-11-25T20:09:17.263Z,68.60
2017-11-25T20:11:45.559Z,68.90
2017-11-25T20:14:13.802Z,69.00
2017-11-25T20:16:41.340Z,69.00
2017-11-25T20:19:08.895Z,69.10
2017-11-25T20:21:37.524Z,69.20
2017-11-25T20:24:05.052Z,69.20
2017-11-25T20:26:32.521Z,69.40
2017-11-25T20:28:59.989Z,69.50
2017-11-25T20:31:27.561Z,69.30
2017-11-25T20:33:55.990Z,69.20
2017-11-25T20:36:23.544Z,69.20
2017-11-25T20:38:51.108Z,69.20
2017-11-25T20:41:18.562Z,69.20
2017-11-25T20:43:46.560Z,69.30
2017-11-25T20:46:14.426Z,69.30
2017-11-25T20:48:41.937Z,69.30
2017-11-25T20:51:09.492Z,69.30
2017-11-25T20:53:36.966Z,69.50
2017-11-25T20:56:04.425Z,69.30
2017-11-25T20:58:37.334Z,70.00
2017-11-25T21:01:04.779Z,69.20
2017-11-25T21:03:32.229Z,68.90
2017-11-25T21:05:59.886Z,69.00
2017-11-25T21:08:27.338Z,69.20
2017-11-25T21:10:55.353Z,69.40
2017-11-25T21:13:22.955Z,69.30
2017-11-25T21:15:51.538Z,69.10
2017-11-25T21:18:20.042Z,69.40
2017-11-25T21:20:48.604Z,69.50
2017-11-25T21:23:17.139Z,69.40
2017-11-25T21:25:46.436Z,69.50
2017-11-25T21:28:16.410Z,69.40
2017-11-25T21:30:45.136Z,69.40
2017-11-25T21:33:12.686Z,69.50
2017-11-25T21:35:40.280Z,69.80
2017-11-25T21:38:07.831Z,69.90
2017-11-25T21:40:36.097Z,70.00
2017-11-25T21:43:04.951Z,70.30
2017-11-25T21:45:32.607Z,70.30
2017-11-25T21:48:00.163Z,70.10
2017-11-25T21:50:28.223Z,70.10
2017-11-25T21:52:55.904Z,70.20
2017-11-25T21:55:23.425Z,70.10
2017-11-25T21:57:51.030Z,70.10
2017-11-25T22:00:18.575Z,70.10
2017-11-25T22:02:46.084Z,70.00
2017-11-25T22:05:13.821Z,69.90
2017-11-25T22:07:42.256Z,70.00
2017-11-25T22:10:09.843Z,70.00
2017-11-25T22:12:37.303Z,70.30
2017-11-25T22:15:04.906Z,70.40
2017-11-25T22:17:33.630Z,71.00
2017-11-25T22:20:01.239Z,70.90
2017-11-25T22:22:28.696Z,71.00
2017-11-25T22:24:56.162Z,71.10
2017-11-25T22:27:24.532Z,71.50
2017-11-25T22:29:52.102Z,71.50
2017-11-25T22:32:21.312Z,71.30
2017-11-25T22:34:49.355Z,71.20
2017-11-25T22:37:16.794Z,71.10
2017-11-25T22:39:44.977Z,71.50
2017-11-25T22:42:12.496Z,71.10
2017-11-25T22:44:40.419Z,71.30
2017-11-25T22:47:08.854Z,71.60
2017-11-25T22:49:36.499Z,71.40
2017-11-25T22:52:04.119Z,71.70
2017-11-25T22:54:32.366Z,71.80
2017-11-25T22:56:59.833Z,71.70
2017-11-25T22:59:27.339Z,71.60
2017-11-25T23:01:55.388Z,71.80
2017-11-25T23:04:23.639Z,71.90
2017-11-25T23:06:51.111Z,71.90
2017-11-25T23:09:19.514Z,72.00
2017-11-25T23:11:47.325Z,72.00
2017-11-25T23:14:14.782Z,72.00
2017-11-25T23:16:42.259Z,71.80
2017-11-25T23:19:10.551Z,72.00
2017-11-25T23:21:38.935Z,72.20
2017-11-25T23:24:07.344Z,72.40
2017-11-25T23:26:35.031Z,72.30
2017-11-25T23:29:02.476Z,72.50
2017-11-25T23:31:30.152Z,72.50
2017-11-25T23:33:57.674Z,72.60
2017-11-25T23:36:25.746Z,72.70
2017-11-25T23:38:53.304Z,72.70
2017-11-25T23:41:20.942Z,72.70
2017-11-25T23:43:48.863Z,72.90
2017-11-25T23:46:16.335Z,72.90
2017-11-25T23:48:43.994Z,73.00
2017-11-25T23:51:11.445Z,73.10
2017-11-25T23:53:39.178Z,73.10
2017-11-25T23:56:06.727Z,73.10
2017-11-25T23:58:34.312Z,73.20
